Time;durP1;ratioP1;P1;durP2;ratioP2;P2;SDS_P1;SDS_P2;PMS_P1;PMS_P2;Temp;Humidity;BMP_temperature;BMP_pressure;BME280_temperature;BME280_humidity;BME280_pressure;Samples;Min_cycle;Max_cycle;Signal;HPM_P1;HPM_P2
2022/11/06 03:27:07;;;;;;;13.15;4.30;;;2.50;99.90;;;;;;5984970;23;20331;-86
2022/11/06 03:30:43;;;;;;;;;;;;;;;;;;;;;
2022/11/06 03:35:26;;;;;;;;;;;;;;;;;;;;;
2022/11/06 03:49:06;;;;;;;45.08;6.15;;;2.40;99.90;;;;;;6095953;23;20445;-86
2022/11/06 03:53:29;;;;;;;13.55;3.97;;;2.50;99.90;;;;;;5980694;23;20030;-87
2022/11/06 04:01:51;;;;;;;;;;;;;;;;;;;;;
2022/11/06 04:06:02;;;;;;;;;;;;;;;;;;;;;
2022/11/06 04:17:44;;;;;;;40.67;3.97;;;2.80;99.90;;;;;;6131000;23;20034;-87
2022/11/06 07:26:48;;;;;;;36.50;7.40;;;3.80;99.90;;;;;;6200194;23;20352;-85
2022/11/06 08:27:45;;;;;;;;;;;;;;;;;;;;;
2022/11/06 09:57:45;;;;;;;8.50;4.40;;;7.20;99.90;;;;;;6238821;23;20020;-87
2022/11/06 10:05:02;;;;;;;8.07;6.30;;;7.10;99.90;;;;;;6240672;22;20038;-88
2022/11/06 10:07:42;;;;;;;5.32;4.93;;;6.80;99.90;;;;;;6221621;22;20031;-94
2022/11/06 10:10:47;;;;;;;6.90;4.45;;;6.90;99.90;;;;;;6193872;22;20020;-90
2022/11/06 10:18:00;;;;;;;5.85;5.35;;;7.00;99.90;;;;;;6275785;22;20023;-87
2022/11/06 10:21:20;;;;;;;3.95;3.10;;;7.40;99.90;;;;;;6131682;22;20400;-88
2022/11/06 10:24:03;;;;;;;4.47;4.05;;;7.60;99.90;;;;;;6173500;23;20491;-87
2022/11/06 10:27:06;;;;;;;6.10;5.40;;;7.90;99.90;;;;;;6121542;23;20202;-87
2022/11/06 10:29:55;;;;;;;3.08;2.75;;;8.30;99.90;;;;;;6124810;23;20013;-89
2022/11/06 10:33:00;;;;;;;2.72;2.50;;;8.10;99.90;;;;;;6110622;23;20032;-84
2022/11/06 10:53:14;;;;;;;4.05;3.42;;;8.30;99.90;;;;;;6256114;22;20039;-86
2022/11/06 10:55:58;;;;;;;3.47;3.17;;;8.40;99.90;;;;;;6223758;22;20011;-85
2022/11/06 10:58:55;;;;;;;3.47;3.17;;;8.40;99.90;;;;;;6218570;22;20012;-85
2022/11/06 11:01:32;;;;;;;3.67;3.13;;;8.70;99.90;;;;;;6217953;23;20020;-86
2022/11/06 11:09:00;;;;;;;3.85;3.17;;;8.80;99.90;;;;;;6233066;22;20028;-87
2022/11/06 11:12:31;;;;;;;3.42;3.13;;;8.60;99.90;;;;;;6216658;23;20380;-85
2022/11/06 11:15:24;;;;;;;7.47;5.65;;;8.60;99.90;;;;;;6226353;23;20012;-83
2022/11/06 11:34:45;;;;;;;3.00;2.75;;;8.40;99.90;;;;;;6183821;23;20021;-84
2022/11/06 11:56:20;;;;;;;4.28;3.80;;;8.80;99.90;;;;;;6203883;23;20024;-87
2022/11/06 12:07:26;;;;;;;5.65;3.35;;;8.40;99.90;;;;;;6090228;23;20200;-84
2022/11/06 12:10:43;;;;;;;5.65;4.40;;;8.50;99.90;;;;;;6073243;23;20029;-85
2022/11/06 12:19:17;;;;;;;2.85;2.65;;;8.60;99.90;;;;;;6192212;22;20025;-88
2022/11/06 12:22:52;;;;;;;4.45;3.58;;;8.70;99.90;;;;;;6241824;23;20039;-88
2022/11/06 12:26:34;;;;;;;6.47;5.03;;;8.40;99.90;;;;;;6139638;23;20032;-85
2022/11/06 12:30:18;;;;;;;4.10;3.00;;;8.60;99.90;;;;;;6212610;23;20021;-86
2022/11/06 12:37:32;;;;;;;3.50;2.50;;;8.90;99.90;;;;;;6245813;22;20079;-84
2022/11/06 12:41:25;;;;;;;5.07;4.47;;;8.90;99.90;;;;;;6252716;22;20023;-85
2022/11/06 12:45:16;;;;;;;3.20;2.28;;;8.80;99.90;;;;;;6186273;23;20482;-85
2022/11/06 12:48:39;;;;;;;3.65;3.35;;;8.90;99.90;;;;;;6209128;22;20035;-86
2022/11/06 12:52:15;;;;;;;3.20;2.90;;;9.00;99.90;;;;;;6222476;22;20115;-87
2022/11/06 12:59:48;;;;;;;3.70;3.00;;;9.20;99.90;;;;;;6253909;22;20023;-85
2022/11/06 13:03:11;;;;;;;4.18;3.88;;;9.30;99.90;;;;;;6129503;23;20022;-88
2022/11/06 13:06:21;;;;;;;3.20;2.93;;;9.30;99.90;;;;;;6261073;22;20023;-89
2022/11/06 13:14:45;;;;;;;5.88;3.13;;;9.30;99.90;;;;;;6206717;22;20030;-85
2022/11/06 13:18:44;;;;;;;2.65;2.45;;;9.30;99.90;;;;;;6242172;23;20024;-84
2022/11/06 13:21:48;;;;;;;3.95;2.42;;;9.20;99.90;;;;;;6196633;22;20034;-86
2022/11/06 13:30:55;;;;;;;5.03;2.72;;;9.10;99.90;;;;;;6182991;23;20021;-88
2022/11/06 14:43:25;;;;;;;4.13;3.83;;;9.00;99.90;;;;;;6161374;23;20048;-88
2022/11/06 14:55:43;;;;;;;5.40;3.58;;;8.90;99.90;;;;;;6091034;23;20027;-84
2022/11/06 14:59:07;;;;;;;3.60;2.80;;;8.80;99.90;;;;;;5905955;24;20021;-86
2022/11/06 15:02:34;;;;;;;4.68;3.80;;;8.70;99.90;;;;;;5858016;24;20025;-83
2022/11/06 15:05:52;;;;;;;4.65;3.97;;;8.70;99.90;;;;;;5840307;24;20042;-86
2022/11/06 15:08:44;;;;;;;4.28;3.70;;;8.60;99.90;;;;;;6033929;23;20032;-83
2022/11/06 15:11:41;;;;;;;4.10;3.35;;;8.50;99.90;;;;;;6049977;23;20024;-87
2022/11/06 15:14:14;;;;;;;3.65;3.08;;;8.40;99.90;;;;;;5962855;23;20047;-86
2022/11/06 15:17:46;;;;;;;3.55;3.20;;;8.30;99.90;;;;;;6008875;23;20031;-84
2022/11/06 15:43:51;;;;;;;7.15;4.72;;;7.40;99.90;;;;;;6209715;23;20016;-83
2022/11/06 15:46:26;;;;;;;9.30;6.25;;;7.30;99.90;;;;;;6198417;23;20016;-82
2022/11/06 15:49:15;;;;;;;11.20;7.90;;;7.20;99.90;;;;;;6213588;23;20025;-79
2022/11/06 15:52:15;;;;;;;8.30;5.75;;;7.10;99.90;;;;;;6187555;23;20052;-82
2022/11/06 15:54:43;;;;;;;10.05;6.75;;;7.20;99.90;;;;;;6223096;23;20016;-77
2022/11/06 15:57:19;;;;;;;8.30;6.25;;;7.00;99.90;;;;;;6219432;23;20615;-77
2022/11/06 16:10:07;;;;;;;8.23;7.25;;;6.70;99.90;;;;;;5945170;24;20048;-86
2022/11/06 16:18:29;;;;;;;13.55;7.00;;;6.60;99.90;;;;;;6087748;23;20026;-88
2022/11/06 16:21:59;;;;;;;;;;;;;;;;;;;;;
2022/11/06 16:35:54;;;;;;;;;;;;;;;;;;;;;
2022/11/06 16:50:00;;;;;;;;;;;;;;;;;;;;;
2022/11/06 16:55:10;;;;;;;;;;;;;;;;;;;;;
2022/11/06 17:44:07;;;;;;;13.70;9.23;;;5.90;99.90;;;;;;5733151;24;20031;-86
2022/11/06 17:54:56;;;;;;;14.98;8.65;;;5.40;99.90;;;;;;5994128;23;20198;-86
2022/11/06 17:57:24;;;;;;;13.32;9.75;;;5.00;99.90;;;;;;6001302;23;20458;-87
2022/11/06 17:59:52;;;;;;;13.48;9.07;;;5.00;99.90;;;;;;6022344;23;20049;-86
2022/11/06 18:02:22;;;;;;;12.33;9.27;;;5.00;99.90;;;;;;6053794;23;20022;-86
2022/11/06 18:05:14;;;;;;;15.00;9.48;;;5.10;99.90;;;;;;6119340;23;20123;-86
2022/11/06 18:07:42;;;;;;;12.75;10.68;;;5.10;99.90;;;;;;6129140;23;20048;-86
2022/11/06 18:10:09;;;;;;;16.23;9.60;;;5.10;99.90;;;;;;6164762;23;20017;-86
2022/11/06 18:12:39;;;;;;;13.73;11.73;;;5.10;99.90;;;;;;6155934;23;20025;-86
2022/11/06 18:15:07;;;;;;;13.23;9.25;;;5.10;99.90;;;;;;6162945;23;20021;-85
2022/11/06 18:17:35;;;;;;;15.65;9.65;;;5.10;99.90;;;;;;6129724;23;20662;-86
2022/11/06 18:20:02;;;;;;;12.50;9.15;;;5.00;99.90;;;;;;6177361;23;20025;-86
2022/11/06 18:22:30;;;;;;;15.63;9.20;;;5.00;99.90;;;;;;6157895;23;20017;-85
2022/11/06 18:25:01;;;;;;;12.68;10.25;;;5.00;99.90;;;;;;6140514;23;20014;-85
2022/11/06 18:27:28;;;;;;;12.40;8.52;;;5.00;99.90;;;;;;6152752;23;20022;-85
2022/11/06 18:29:57;;;;;;;11.90;8.02;;;4.90;99.90;;;;;;6166042;23;20009;-85
2022/11/06 18:32:24;;;;;;;16.35;8.32;;;4.90;99.90;;;;;;6157708;23;20033;-86
2022/11/06 19:00:54;;;;;;;15.02;8.77;;;4.90;99.90;;;;;;6001330;23;20697;-88
2022/11/06 22:19:07;;;;;;;14.23;9.00;;;5.80;99.90;;;;;;6187653;23;20032;-84
2022/11/06 22:21:38;;;;;;;8.60;7.65;;;6.00;99.90;;;;;;6193429;23;20013;-84
2022/11/06 22:24:06;;;;;;;9.82;7.82;;;5.80;99.90;;;;;;6133724;23;20024;-84
2022/11/06 22:26:35;;;;;;;1.65;1.55;;;5.90;99.90;;;;;;6194512;23;20009;-82
2022/11/06 22:29:09;;;;;;;6.80;1.80;;;6.10;99.90;;;;;;6223922;23;20008;-82
2022/11/06 22:31:36;;;;;;;1.60;1.38;;;7.30;99.90;;;;;;6204194;23;20021;-84
2022/11/06 22:34:04;;;;;;;1.83;1.48;;;8.10;99.90;;;;;;6160308;23;20016;-92
2022/11/06 22:36:32;;;;;;;1.60;1.50;;;8.40;99.90;;;;;;6186342;23;20043;-90
2022/11/06 22:39:04;;;;;;;1.80;1.42;;;8.50;99.90;;;;;;6190747;23;20020;-91
2022/11/06 22:41:41;;;;;;;1.30;1.00;;;8.70;99.90;;;;;;6166471;23;20027;-89
2022/11/06 22:44:11;;;;;;;1.35;1.30;;;8.60;99.90;;;;;;6168878;23;20028;-89
2022/11/06 22:46:52;;;;;;;1.35;0.85;;;8.70;99.90;;;;;;6139578;23;20436;-93
2022/11/06 22:49:23;;;;;;;2.67;1.58;;;8.70;99.90;;;;;;6133229;23;20013;-92
2022/11/06 22:51:54;;;;;;;1.35;1.25;;;8.50;99.90;;;;;;6132553;23;20425;-92
2022/11/06 22:54:35;;;;;;;;;;;8.40;99.90;;;;;;6136749;23;20029;-91
2022/11/06 22:57:19;;;;;;;1.20;1.10;;;8.30;99.90;;;;;;6106045;23;19923;-92
2022/11/06 22:59:56;;;;;;;1.42;1.33;;;8.30;99.90;;;;;;6113321;23;20053;-91
2022/11/06 23:07:48;;;;;;;0.80;0.80;;;8.20;99.90;;;;;;6161380;23;20017;-91
2022/11/06 23:10:47;;;;;;;1.80;0.98;;;8.10;99.90;;;;;;6111587;23;20018;-91
2022/11/06 23:13:33;;;;;;;1.52;1.10;;;8.10;99.90;;;;;;6131359;23;20013;-92
2022/11/06 23:16:55;;;;;;;1.50;1.40;;;8.00;99.90;;;;;;6140176;23;20344;-92
2022/11/06 23:19:34;;;;;;;1.33;1.23;;;8.00;99.90;;;;;;6175605;23;20021;-92
2022/11/06 23:22:39;;;;;;;1.50;1.40;;;7.90;99.90;;;;;;6163015;23;20017;-93
2022/11/06 23:25:51;;;;;;;1.80;1.60;;;7.90;99.90;;;;;;6116190;23;20032;-93
2022/11/06 23:29:27;;;;;;;2.42;1.23;;;7.90;99.90;;;;;;6019389;23;20108;-91
2022/11/06 23:43:10;;;;;;;1.08;1.00;;;7.70;99.90;;;;;;5952768;24;20016;-92
2022/11/06 23:52:00;;;;;;;1.30;1.20;;;7.70;99.90;;;;;;5966587;24;20024;-90
